Terminal Aerodrome Forecast
Issued by NWS Shreveport, LA

Home | Current Version | Previous Version | Text Only | Print | Product List | Glossary On
Versions: 1 2 3 4 5 6 7 8 9 10 11 12 13 14 15
000
FTUS44 KSHV 302031 AAA
TAFTYR
TAF AMD
KTYR 302031Z 3021/3118 VRB03KT P6SM VCSH FEW040
     FM310100 06003KT P6SM SCT250
     FM311400 04005KT P6SM FEW040 FEW150 SCT250=

USA.gov is the U.S. government's official web portal to all federal, state and local government web resources and services.